Saint Helens, OR

6:29 PM PDT on August 22, 2014 (GMT -0700)
Arbor Hill, Sykes Rd. | Change Station
CLOSE
Current Station
Personal Weather Station
Location: St. Helens, OR
Elevation: 200 ft
Nearby Weather Stations

Elev 200 ft 45.85 °N, 122.85 °W | Updated 4 minutes ago

Partly Cloudy
Partly Cloudy
77.1 °F
Feels Like 79 °F
N
3.0
Wind Variable Wind from WNW
Gusts 5.0 mph

Today
High -- | Low -- °F
--% Chance of Precip.
Yesterday
High -- | Low -- °F
Precip. -- in
6:20 AM 8:07 PM
Waning Crescent, 6% visible
Pressure 30.01 in
Visibility 10.0 miles
Clouds Few 5500 ft
Heat Index 79 °F
Dew Point 56 °F
Humidity 48%
Rainfall 0.00 in
Snow Depth Not available.
UV 2 out of 12
Pollen 3.50 out of 12
Air Quality Not available.
Flu Activity Not available.
METAR KSPB 230053Z AUTO 33007G16KT 10SM FEW055 26/12 A3000 RMK AO2 SLP160 T02610117

More Conditions Fewer Conditions

Pressure 30.01 in
Visibility 10.0 miles
Clouds Few 5500 ft
Heat Index 79 °F
Dew Point 56 °F
Humidity 48%
Rainfall 0.00 in
Snow Depth Not available.
UV 2 out of 12
Pollen 3.50 out of 12
Air Quality Not available.
Flu Activity Not available.
METAR KSPB 230053Z AUTO 33007G16KT 10SM FEW055 26/12 A3000 RMK AO2 SLP160 T02610117

More Conditions Fewer Conditions

10-Day Weather Forecast

Almanac

Astronomy

Aug. 22, 2014 Rise Set
Actual Time 6:20 AM PDT 8:07 PM PDT
Civil Twilight 5:48 AM PDT 8:39 PM PDT
Nautical Twilight 5:09 AM PDT 9:17 PM PDT
Astronomical Twilight 4:27 AM PDT 10:00 PM PDT
Moon 3:43 AM PDT (8/22) 6:22 PM PDT (8/22)
Length of Visible Light 14h 50m
Length of Day
13h 47m
Tomorrow will be 3m 0s shorter.
Waning Crescent, 6% of the Moon is Illuminated
Today
Waning Crescent
Aug 25
New
Sep 2
First Quarter
Sep 8
Full
Sep 15
Last Quarter

Today's Extremes

State Highs State Lows

Community

WunderPhotos

Upload Photos

1,746,337 photos uploaded!

WunderBlogs® & News

Nearby

Snow Depth

Station Depth Elevation
Seine Creek 0 in 2000 ft
Saddle Mountain 5 in 3250 ft
North Fork 1 in 3120 ft
Blazed Alder 0 in 3650 ft
Greenpoint 1 in 3200 ft

Earthquake Activity

City Distance Mag. Time & Date
No recent earthquake activity has been reported nearby.
Minimum magnitude displayed is 2.5.

Coastal Water Temperatures

Place Temperature
Astoria, OR 70.0 °F
Westport, WA 59.0 °F

Nearby Weather Stations